sensor_id;sensor_type;location;lat;lon;timestamp;pressure;altitude;pressure_sealevel;temperature;humidity
6829;BME280;17930;48.592;8.868;2022-08-26T00:01:41;96485.22;;;19.00;100.00
6829;BME280;17930;48.592;8.868;2022-08-26T00:04:09;96495.00;;;18.99;100.00
6829;BME280;17930;48.592;8.868;2022-08-26T00:06:36;96484.31;;;18.96;100.00
6829;BME280;17930;48.592;8.868;2022-08-26T00:09:03;96482.88;;;18.99;100.00
6829;BME280;17930;48.592;8.868;2022-08-26T00:11:30;96476.06;;;18.98;100.00
6829;BME280;17930;48.592;8.868;2022-08-26T00:13:57;96484.97;;;18.93;100.00
6829;BME280;17930;48.592;8.868;2022-08-26T00:16:26;96483.34;;;18.89;100.00
6829;BME280;17930;48.592;8.868;2022-08-26T00:18:54;96480.78;;;18.80;100.00
6829;BME280;17930;48.592;8.868;2022-08-26T00:21:22;96493.31;;;18.71;100.00
6829;BME280;17930;48.592;8.868;2022-08-26T00:23:49;96487.28;;;18.71;100.00
6829;BME280;17930;48.592;8.868;2022-08-26T00:26:16;96486.28;;;18.63;100.00
6829;BME280;17930;48.592;8.868;2022-08-26T00:28:42;96481.00;;;18.63;100.00
6829;BME280;17930;48.592;8.868;2022-08-26T00:31:10;96479.22;;;18.55;100.00
6829;BME280;17930;48.592;8.868;2022-08-26T00:33:36;96482.94;;;18.54;100.00
6829;BME280;17930;48.592;8.868;2022-08-26T00:36:03;96481.66;;;18.60;100.00
6829;BME280;17930;48.592;8.868;2022-08-26T00:38:33;96483.63;;;18.63;100.00
6829;BME280;17930;48.592;8.868;2022-08-26T00:41:00;96476.38;;;18.60;100.00
6829;BME280;17930;48.592;8.868;2022-08-26T00:43:31;96485.59;;;18.54;100.00
6829;BME280;17930;48.592;8.868;2022-08-26T00:46:04;96480.09;;;18.48;100.00
6829;BME280;17930;48.592;8.868;2022-08-26T00:48:33;96483.34;;;18.45;100.00
6829;BME280;17930;48.592;8.868;2022-08-26T00:51:07;96486.34;;;18.43;100.00
6829;BME280;17930;48.592;8.868;2022-08-26T00:53:47;96480.69;;;18.33;100.00
6829;BME280;17930;48.592;8.868;2022-08-26T00:56:19;96488.84;;;18.28;100.00
6829;BME280;17930;48.592;8.868;2022-08-26T00:58:47;96493.66;;;18.26;100.00
6829;BME280;17930;48.592;8.868;2022-08-26T01:01:15;96488.59;;;18.21;100.00
6829;BME280;17930;48.592;8.868;2022-08-26T01:03:43;96487.06;;;18.20;100.00
6829;BME280;17930;48.592;8.868;2022-08-26T01:06:12;96497.34;;;18.13;100.00
6829;BME280;17930;48.592;8.868;2022-08-26T01:08:40;96492.53;;;18.15;100.00
6829;BME280;17930;48.592;8.868;2022-08-26T01:11:07;96503.38;;;18.13;100.00
6829;BME280;17930;48.592;8.868;2022-08-26T01:13:35;96500.63;;;18.10;100.00
6829;BME280;17930;48.592;8.868;2022-08-26T01:16:04;96493.47;;;18.10;100.00
6829;BME280;17930;48.592;8.868;2022-08-26T01:18:33;96493.78;;;18.09;100.00
6829;BME280;17930;48.592;8.868;2022-08-26T01:21:06;96497.50;;;17.96;100.00
6829;BME280;17930;48.592;8.868;2022-08-26T01:23:40;96497.25;;;17.89;100.00
6829;BME280;17930;48.592;8.868;2022-08-26T01:26:10;96494.28;;;17.91;100.00
6829;BME280;17930;48.592;8.868;2022-08-26T01:28:39;96492.41;;;17.91;100.00
6829;BME280;17930;48.592;8.868;2022-08-26T01:31:09;96500.97;;;17.88;100.00
6829;BME280;17930;48.592;8.868;2022-08-26T01:33:42;96494.16;;;17.87;100.00
6829;BME280;17930;48.592;8.868;2022-08-26T01:36:11;96500.75;;;17.81;100.00
6829;BME280;17930;48.592;8.868;2022-08-26T01:38:41;96493.97;;;17.72;100.00
6829;BME280;17930;48.592;8.868;2022-08-26T01:41:08;96496.94;;;17.70;100.00
6829;BME280;17930;48.592;8.868;2022-08-26T01:43:38;96498.66;;;17.66;100.00
6829;BME280;17930;48.592;8.868;2022-08-26T01:46:06;96500.00;;;17.72;100.00
6829;BME280;17930;48.592;8.868;2022-08-26T01:48:34;96505.75;;;17.74;100.00
6829;BME280;17930;48.592;8.868;2022-08-26T01:51:04;96505.75;;;17.74;100.00
6829;BME280;17930;48.592;8.868;2022-08-26T01:53:34;96499.38;;;17.75;100.00
6829;BME280;17930;48.592;8.868;2022-08-26T01:56:03;96503.56;;;17.76;100.00
6829;BME280;17930;48.592;8.868;2022-08-26T01:58:34;96496.59;;;17.72;100.00
6829;BME280;17930;48.592;8.868;2022-08-26T02:01:02;96509.88;;;17.63;100.00
6829;BME280;17930;48.592;8.868;2022-08-26T02:03:29;96512.44;;;17.51;100.00
6829;BME280;17930;48.592;8.868;2022-08-26T02:05:58;96509.97;;;17.46;100.00
6829;BME280;17930;48.592;8.868;2022-08-26T02:08:27;96502.63;;;17.32;100.00
6829;BME280;17930;48.592;8.868;2022-08-26T02:10:56;96497.22;;;17.28;100.00
6829;BME280;17930;48.592;8.868;2022-08-26T02:13:26;96495.81;;;17.31;100.00
6829;BME280;17930;48.592;8.868;2022-08-26T02:15:55;96497.97;;;17.29;100.00
6829;BME280;17930;48.592;8.868;2022-08-26T02:18:22;96501.59;;;17.16;100.00
6829;BME280;17930;48.592;8.868;2022-08-26T02:20:51;96506.09;;;17.15;100.00
6829;BME280;17930;48.592;8.868;2022-08-26T02:23:19;96502.84;;;17.18;100.00
6829;BME280;17930;48.592;8.868;2022-08-26T02:25:50;96505.34;;;17.15;100.00
6829;BME280;17930;48.592;8.868;2022-08-26T02:28:18;96505.16;;;17.20;100.00
6829;BME280;17930;48.592;8.868;2022-08-26T02:30:47;96504.69;;;17.18;100.00
6829;BME280;17930;48.592;8.868;2022-08-26T02:33:13;96499.44;;;17.18;100.00
6829;BME280;17930;48.592;8.868;2022-08-26T02:35:40;96501.59;;;17.16;100.00
6829;BME280;17930;48.592;8.868;2022-08-26T02:38:07;96504.22;;;17.16;100.00
6829;BME280;17930;48.592;8.868;2022-08-26T02:40:37;96497.09;;;17.25;100.00
6829;BME280;17930;48.592;8.868;2022-08-26T02:43:05;96497.88;;;17.25;100.00
6829;BME280;17930;48.592;8.868;2022-08-26T02:45:33;96501.78;;;17.11;100.00
6829;BME280;17930;48.592;8.868;2022-08-26T02:48:07;96506.38;;;16.93;100.00
6829;BME280;17930;48.592;8.868;2022-08-26T02:50:36;96502.88;;;16.81;100.00
6829;BME280;17930;48.592;8.868;2022-08-26T02:53:02;96506.28;;;16.73;100.00
6829;BME280;17930;48.592;8.868;2022-08-26T02:55:29;96503.06;;;16.68;100.00
6829;BME280;17930;48.592;8.868;2022-08-26T02:57:56;96503.56;;;16.61;100.00
6829;BME280;17930;48.592;8.868;2022-08-26T03:00:23;96497.34;;;16.66;100.00
6829;BME280;17930;48.592;8.868;2022-08-26T03:02:50;96500.78;;;16.58;100.00
6829;BME280;17930;48.592;8.868;2022-08-26T03:05:19;96495.47;;;16.66;100.00
6829;BME280;17930;48.592;8.868;2022-08-26T03:07:46;96495.94;;;16.68;100.00
6829;BME280;17930;48.592;8.868;2022-08-26T03:10:13;96489.91;;;16.59;100.00
6829;BME280;17930;48.592;8.868;2022-08-26T03:12:40;96492.03;;;16.74;100.00
6829;BME280;17930;48.592;8.868;2022-08-26T03:15:08;96498.22;;;16.78;100.00
6829;BME280;17930;48.592;8.868;2022-08-26T03:17:35;96488.34;;;16.75;100.00
6829;BME280;17930;48.592;8.868;2022-08-26T03:20:03;96488.16;;;16.72;100.00
6829;BME280;17930;48.592;8.868;2022-08-26T03:22:34;96493.88;;;16.74;100.00
6829;BME280;17930;48.592;8.868;2022-08-26T03:25:01;96486.31;;;16.72;100.00
6829;BME280;17930;48.592;8.868;2022-08-26T03:27:27;96489.56;;;16.69;100.00
6829;BME280;17930;48.592;8.868;2022-08-26T03:29:54;96488.94;;;16.72;100.00
6829;BME280;17930;48.592;8.868;2022-08-26T03:32:39;96485.78;;;16.87;100.00
6829;BME280;17930;48.592;8.868;2022-08-26T03:35:05;96489.28;;;16.99;100.00
6829;BME280;17930;48.592;8.868;2022-08-26T03:37:34;96481.47;;;16.83;100.00
6829;BME280;17930;48.592;8.868;2022-08-26T03:40:01;96485.16;;;16.90;100.00
6829;BME280;17930;48.592;8.868;2022-08-26T03:42:27;96484.97;;;16.95;100.00
6829;BME280;17930;48.592;8.868;2022-08-26T03:44:54;96487.97;;;16.85;100.00
6829;BME280;17930;48.592;8.868;2022-08-26T03:47:21;96487.88;;;16.65;100.00
6829;BME280;17930;48.592;8.868;2022-08-26T03:49:48;96483.63;;;16.81;100.00
6829;BME280;17930;48.592;8.868;2022-08-26T03:52:14;96484.69;;;16.88;100.00
6829;BME280;17930;48.592;8.868;2022-08-26T03:54:42;96486.78;;;16.74;100.00
6829;BME280;17930;48.592;8.868;2022-08-26T03:57:09;96483.41;;;16.65;100.00
6829;BME280;17930;48.592;8.868;2022-08-26T03:59:36;96489.28;;;16.62;100.00
6829;BME280;17930;48.592;8.868;2022-08-26T04:02:02;96480.69;;;16.82;100.00
6829;BME280;17930;48.592;8.868;2022-08-26T04:04:29;96482.19;;;16.92;100.00
6829;BME280;17930;48.592;8.868;2022-08-26T04:06:57;96486.41;;;16.84;100.00
6829;BME280;17930;48.592;8.868;2022-08-26T04:09:24;96490.31;;;16.78;100.00
6829;BME280;17930;48.592;8.868;2022-08-26T04:11:54;96481.94;;;16.76;100.00
6829;BME280;17930;48.592;8.868;2022-08-26T04:14:24;96496.53;;;16.74;100.00
6829;BME280;17930;48.592;8.868;2022-08-26T04:16:53;96487.31;;;16.51;100.00
6829;BME280;17930;48.592;8.868;2022-08-26T04:19:21;96491.19;;;16.53;100.00
6829;BME280;17930;48.592;8.868;2022-08-26T04:21:49;96488.25;;;16.46;100.00
6829;BME280;17930;48.592;8.868;2022-08-26T04:24:18;96493.88;;;16.37;100.00
6829;BME280;17930;48.592;8.868;2022-08-26T04:26:45;96489.53;;;16.32;100.00
6829;BME280;17930;48.592;8.868;2022-08-26T04:29:16;96489.41;;;16.29;100.00
6829;BME280;17930;48.592;8.868;2022-08-26T04:31:44;96488.91;;;16.18;100.00
6829;BME280;17930;48.592;8.868;2022-08-26T04:34:11;96492.19;;;16.07;100.00
6829;BME280;17930;48.592;8.868;2022-08-26T04:36:38;96479.97;;;16.11;100.00
6829;BME280;17930;48.592;8.868;2022-08-26T04:39:05;96480.41;;;16.13;100.00
6829;BME280;17930;48.592;8.868;2022-08-26T04:41:33;96477.78;;;16.13;100.00
6829;BME280;17930;48.592;8.868;2022-08-26T04:44:01;96478.59;;;16.05;100.00
6829;BME280;17930;48.592;8.868;2022-08-26T04:46:29;96484.78;;;15.92;100.00
6829;BME280;17930;48.592;8.868;2022-08-26T04:48:56;96480.72;;;16.03;100.00
6829;BME280;17930;48.592;8.868;2022-08-26T04:51:23;96482.72;;;16.14;100.00
6829;BME280;17930;48.592;8.868;2022-08-26T04:53:52;96485.84;;;16.16;100.00
6829;BME280;17930;48.592;8.868;2022-08-26T04:56:22;96490.31;;;16.24;100.00
6829;BME280;17930;48.592;8.868;2022-08-26T04:58:50;96488.78;;;16.32;100.00
6829;BME280;17930;48.592;8.868;2022-08-26T05:01:17;96484.56;;;16.39;100.00
6829;BME280;17930;48.592;8.868;2022-08-26T05:03:46;96489.06;;;16.39;100.00
6829;BME280;17930;48.592;8.868;2022-08-26T05:06:14;96492.81;;;16.29;100.00
6829;BME280;17930;48.592;8.868;2022-08-26T05:08:41;96496.38;;;16.16;100.00
6829;BME280;17930;48.592;8.868;2022-08-26T05:11:08;96496.81;;;16.10;100.00
6829;BME280;17930;48.592;8.868;2022-08-26T05:13:36;96498.69;;;16.18;100.00
6829;BME280;17930;48.592;8.868;2022-08-26T05:16:05;96498.69;;;16.35;100.00
6829;BME280;17930;48.592;8.868;2022-08-26T05:18:32;96495.06;;;16.56;100.00
6829;BME280;17930;48.592;8.868;2022-08-26T05:21:01;96502.22;;;16.84;100.00
6829;BME280;17930;48.592;8.868;2022-08-26T05:23:29;96495.97;;;16.97;100.00
6829;BME280;17930;48.592;8.868;2022-08-26T05:25:58;96492.81;;;16.75;100.00
6829;BME280;17930;48.592;8.868;2022-08-26T05:28:26;96499.81;;;16.62;100.00
6829;BME280;17930;48.592;8.868;2022-08-26T05:30:54;96499.66;;;16.67;100.00
6829;BME280;17930;48.592;8.868;2022-08-26T05:33:21;96499.34;;;16.69;100.00
6829;BME280;17930;48.592;8.868;2022-08-26T05:35:48;96495.19;;;16.96;100.00
6829;BME280;17930;48.592;8.868;2022-08-26T05:38:20;96501.16;;;17.14;100.00
6829;BME280;17930;48.592;8.868;2022-08-26T05:40:49;96501.84;;;17.31;100.00
6829;BME280;17930;48.592;8.868;2022-08-26T05:43:18;96497.88;;;17.25;100.00
6829;BME280;17930;48.592;8.868;2022-08-26T05:45:48;96493.13;;;17.39;100.00
6829;BME280;17930;48.592;8.868;2022-08-26T05:48:17;96495.94;;;17.34;100.00
6829;BME280;17930;48.592;8.868;2022-08-26T05:50:46;96500.13;;;17.55;100.00
6829;BME280;17930;48.592;8.868;2022-08-26T05:53:15;96502.13;;;17.38;100.00
6829;BME280;17930;48.592;8.868;2022-08-26T05:55:46;96504.75;;;17.38;100.00
6829;BME280;17930;48.592;8.868;2022-08-26T05:58:14;96508.69;;;17.52;100.00
6829;BME280;17930;48.592;8.868;2022-08-26T06:00:41;96513.16;;;17.60;100.00
6829;BME280;17930;48.592;8.868;2022-08-26T06:03:07;96509.81;;;17.72;100.00
6829;BME280;17930;48.592;8.868;2022-08-26T06:05:37;96509.75;;;17.80;100.00
6829;BME280;17930;48.592;8.868;2022-08-26T06:08:04;96500.19;;;17.88;100.00
6829;BME280;17930;48.592;8.868;2022-08-26T06:10:44;96510.69;;;17.96;100.00
6829;BME280;17930;48.592;8.868;2022-08-26T06:13:11;96509.44;;;18.14;100.00
6829;BME280;17930;48.592;8.868;2022-08-26T06:15:40;96502.91;;;18.32;100.00
6829;BME280;17930;48.592;8.868;2022-08-26T06:18:08;96509.78;;;18.45;100.00
6829;BME280;17930;48.592;8.868;2022-08-26T06:20:34;96510.91;;;18.55;100.00
6829;BME280;17930;48.592;8.868;2022-08-26T06:23:02;96509.84;;;18.68;100.00
6829;BME280;17930;48.592;8.868;2022-08-26T06:25:48;96509.19;;;18.71;100.00
6829;BME280;17930;48.592;8.868;2022-08-26T06:28:14;96515.34;;;18.75;100.00
6829;BME280;17930;48.592;8.868;2022-08-26T06:30:41;96512.28;;;18.85;100.00
6829;BME280;17930;48.592;8.868;2022-08-26T06:33:08;96519.38;;;19.05;100.00
6829;BME280;17930;48.592;8.868;2022-08-26T06:35:36;96516.31;;;19.27;100.00
6829;BME280;17930;48.592;8.868;2022-08-26T06:38:04;96521.16;;;19.37;100.00
6829;BME280;17930;48.592;8.868;2022-08-26T06:40:32;96522.00;;;19.52;100.00
6829;BME280;17930;48.592;8.868;2022-08-26T06:43:02;96521.09;;;19.60;100.00
6829;BME280;17930;48.592;8.868;2022-08-26T06:45:28;96519.09;;;19.69;100.00
6829;BME280;17930;48.592;8.868;2022-08-26T06:47:55;96518.66;;;19.79;100.00
6829;BME280;17930;48.592;8.868;2022-08-26T06:50:22;96525.19;;;20.09;100.00
6829;BME280;17930;48.592;8.868;2022-08-26T06:52:48;96526.00;;;20.25;100.00
6829;BME280;17930;48.592;8.868;2022-08-26T06:55:17;96525.91;;;20.49;100.00
6829;BME280;17930;48.592;8.868;2022-08-26T06:57:43;96531.97;;;20.76;100.00
6829;BME280;17930;48.592;8.868;2022-08-26T07:00:13;96520.31;;;21.27;100.00
6829;BME280;17930;48.592;8.868;2022-08-26T07:02:40;96516.00;;;22.06;100.00
6829;BME280;17930;48.592;8.868;2022-08-26T07:05:07;96526.00;;;22.91;100.00
6829;BME280;17930;48.592;8.868;2022-08-26T07:07:34;96519.72;;;23.73;100.00
6829;BME280;17930;48.592;8.868;2022-08-26T07:10:01;96522.72;;;24.01;100.00
6829;BME280;17930;48.592;8.868;2022-08-26T07:12:27;96518.44;;;24.94;100.00
6829;BME280;17930;48.592;8.868;2022-08-26T07:14:54;96520.75;;;25.39;100.00
6829;BME280;17930;48.592;8.868;2022-08-26T07:17:23;96521.09;;;25.94;100.00
6829;BME280;17930;48.592;8.868;2022-08-26T07:19:50;96513.66;;;26.31;100.00
6829;BME280;17930;48.592;8.868;2022-08-26T07:22:18;96514.19;;;26.88;100.00
6829;BME280;17930;48.592;8.868;2022-08-26T07:24:44;96510.75;;;27.02;100.00
6829;BME280;17930;48.592;8.868;2022-08-26T07:27:14;96513.84;;;27.56;100.00
6829;BME280;17930;48.592;8.868;2022-08-26T07:29:41;96508.56;;;28.48;100.00
6829;BME280;17930;48.592;8.868;2022-08-26T07:32:10;96511.72;;;29.00;100.00
6829;BME280;17930;48.592;8.868;2022-08-26T07:34:39;96514.03;;;29.49;96.60
6829;BME280;17930;48.592;8.868;2022-08-26T07:37:06;96514.06;;;29.86;96.16
6829;BME280;17930;48.592;8.868;2022-08-26T07:39:33;96515.59;;;29.87;91.43
6829;BME280;17930;48.592;8.868;2022-08-26T07:42:00;96513.22;;;30.58;85.23
6829;BME280;17930;48.592;8.868;2022-08-26T07:44:27;96515.38;;;30.07;85.25
6829;BME280;17930;48.592;8.868;2022-08-26T07:46:54;96509.72;;;29.55;85.93
6829;BME280;17930;48.592;8.868;2022-08-26T07:49:21;96510.22;;;29.87;89.69
6829;BME280;17930;48.592;8.868;2022-08-26T07:51:50;96515.03;;;30.39;85.43
6829;BME280;17930;48.592;8.868;2022-08-26T07:54:17;96504.81;;;30.53;85.08
6829;BME280;17930;48.592;8.868;2022-08-26T07:56:44;96508.50;;;31.18;82.43
6829;BME280;17930;48.592;8.868;2022-08-26T07:59:12;96499.44;;;31.55;81.15
6829;BME280;17930;48.592;8.868;2022-08-26T08:01:39;96501.47;;;31.70;75.30
6829;BME280;17930;48.592;8.868;2022-08-26T08:04:06;96503.25;;;32.18;73.98
6829;BME280;17930;48.592;8.868;2022-08-26T08:06:32;96509.09;;;31.29;75.62
6829;BME280;17930;48.592;8.868;2022-08-26T08:09:00;96505.22;;;31.76;77.63
6829;BME280;17930;48.592;8.868;2022-08-26T08:11:27;96499.16;;;32.49;73.74
6829;BME280;17930;48.592;8.868;2022-08-26T08:13:56;96494.09;;;32.51;70.36
6829;BME280;17930;48.592;8.868;2022-08-26T08:16:25;96500.22;;;32.71;71.29
6829;BME280;17930;48.592;8.868;2022-08-26T08:18:53;96494.50;;;32.85;68.51
6829;BME280;17930;48.592;8.868;2022-08-26T08:21:22;96486.84;;;33.15;67.55
6829;BME280;17930;48.592;8.868;2022-08-26T08:23:49;96491.72;;;32.53;69.16
6829;BME280;17930;48.592;8.868;2022-08-26T08:26:17;96497.59;;;33.18;66.92
6829;BME280;17930;48.592;8.868;2022-08-26T08:28:44;96487.16;;;33.65;65.92
6829;BME280;17930;48.592;8.868;2022-08-26T08:31:17;96487.78;;;34.13;62.77
6829;BME280;17930;48.592;8.868;2022-08-26T08:33:44;96487.16;;;34.62;62.69
6829;BME280;17930;48.592;8.868;2022-08-26T08:36:11;96489.13;;;34.61;60.77
6829;BME280;17930;48.592;8.868;2022-08-26T08:38:39;96490.44;;;34.41;62.15
6829;BME280;17930;48.592;8.868;2022-08-26T08:41:18;96468.91;;;35.70;58.93
6829;BME280;17930;48.592;8.868;2022-08-26T08:43:49;96468.56;;;35.68;58.92
6829;BME280;17930;48.592;8.868;2022-08-26T08:46:17;96462.91;;;35.75;57.17
6829;BME280;17930;48.592;8.868;2022-08-26T08:48:46;96465.06;;;36.23;54.67
6829;BME280;17930;48.592;8.868;2022-08-26T08:51:20;96465.03;;;36.65;54.30
6829;BME280;17930;48.592;8.868;2022-08-26T08:53:52;96454.53;;;36.76;55.63
6829;BME280;17930;48.592;8.868;2022-08-26T08:56:25;96452.44;;;37.46;52.81
6829;BME280;17930;48.592;8.868;2022-08-26T08:59:01;96453.81;;;38.22;50.62
6829;BME280;17930;48.592;8.868;2022-08-26T09:01:40;96454.66;;;38.37;50.20
6829;BME280;17930;48.592;8.868;2022-08-26T09:04:18;96450.63;;;38.73;48.46
6829;BME280;17930;48.592;8.868;2022-08-26T09:06:52;96451.31;;;38.59;48.16
6829;BME280;17930;48.592;8.868;2022-08-26T09:09:27;96443.06;;;39.33;47.50
6829;BME280;17930;48.592;8.868;2022-08-26T09:11:57;96434.03;;;39.41;47.27
6829;BME280;17930;48.592;8.868;2022-08-26T09:14:24;96430.88;;;39.80;45.57
6829;BME280;17930;48.592;8.868;2022-08-26T09:17:00;96439.34;;;38.57;46.48
6829;BME280;17930;48.592;8.868;2022-08-26T09:19:35;96444.28;;;38.17;48.26
6829;BME280;17930;48.592;8.868;2022-08-26T09:22:04;96438.97;;;38.23;48.32
6829;BME280;17930;48.592;8.868;2022-08-26T09:24:33;96422.09;;;39.30;46.75
6829;BME280;17930;48.592;8.868;2022-08-26T09:27:02;96435.91;;;36.44;50.19
6829;BME280;17930;48.592;8.868;2022-08-26T09:29:31;96426.53;;;37.42;49.28
6829;BME280;17930;48.592;8.868;2022-08-26T09:32:15;96432.94;;;37.74;49.99
6829;BME280;17930;48.592;8.868;2022-08-26T09:34:53;96426.38;;;37.36;49.45
6829;BME280;17930;48.592;8.868;2022-08-26T09:37:33;96420.03;;;38.10;47.07
6829;BME280;17930;48.592;8.868;2022-08-26T09:40:24;96412.78;;;38.90;46.60
6829;BME280;17930;48.592;8.868;2022-08-26T09:43:14;96409.97;;;39.31;46.79
6829;BME280;17930;48.592;8.868;2022-08-26T09:45:44;96411.78;;;39.34;45.41
6829;BME280;17930;48.592;8.868;2022-08-26T09:48:24;96409.34;;;39.36;44.78
6829;BME280;17930;48.592;8.868;2022-08-26T09:50:54;96393.81;;;39.42;44.17
6829;BME280;17930;48.592;8.868;2022-08-26T09:53:22;96403.47;;;38.73;44.75
6829;BME280;17930;48.592;8.868;2022-08-26T09:55:52;96392.72;;;38.69;44.03
6829;BME280;17930;48.592;8.868;2022-08-26T09:58:38;96401.41;;;37.38;43.73
6829;BME280;17930;48.592;8.868;2022-08-26T10:01:08;96398.34;;;37.00;44.42
6829;BME280;17930;48.592;8.868;2022-08-26T10:03:40;96387.00;;;39.14;43.35
6829;BME280;17930;48.592;8.868;2022-08-26T10:06:20;96377.19;;;39.68;41.46
6829;BME280;17930;48.592;8.868;2022-08-26T10:08:50;96372.78;;;40.14;41.59
6829;BME280;17930;48.592;8.868;2022-08-26T10:11:21;96373.06;;;40.45;42.55
6829;BME280;17930;48.592;8.868;2022-08-26T10:13:55;96360.25;;;40.22;42.64
6829;BME280;17930;48.592;8.868;2022-08-26T10:16:25;96355.59;;;40.42;40.98
6829;BME280;17930;48.592;8.868;2022-08-26T10:18:57;96356.22;;;41.20;40.40
6829;BME280;17930;48.592;8.868;2022-08-26T10:21:30;96348.41;;;41.13;41.18
6829;BME280;17930;48.592;8.868;2022-08-26T10:24:01;96355.06;;;38.50;42.91
6829;BME280;17930;48.592;8.868;2022-08-26T10:26:31;96360.78;;;36.86;45.48
6829;BME280;17930;48.592;8.868;2022-08-26T10:29:09;96348.28;;;38.28;43.61
6829;BME280;17930;48.592;8.868;2022-08-26T10:31:38;96350.38;;;39.44;42.49
6829;BME280;17930;48.592;8.868;2022-08-26T10:34:07;96354.06;;;38.62;42.97
6829;BME280;17930;48.592;8.868;2022-08-26T10:36:38;96351.16;;;39.58;43.32
6829;BME280;17930;48.592;8.868;2022-08-26T10:39:20;96347.34;;;39.42;41.62
6829;BME280;17930;48.592;8.868;2022-08-26T10:41:52;96355.59;;;39.33;41.56
6829;BME280;17930;48.592;8.868;2022-08-26T10:44:23;96351.72;;;40.34;40.14
6829;BME280;17930;48.592;8.868;2022-08-26T10:46:54;96347.78;;;41.43;39.91
6829;BME280;17930;48.592;8.868;2022-08-26T10:49:22;96342.84;;;42.23;38.94
6829;BME280;17930;48.592;8.868;2022-08-26T10:51:54;96335.09;;;42.58;38.33
6829;BME280;17930;48.592;8.868;2022-08-26T10:54:30;96327.34;;;43.67;35.96
6829;BME280;17930;48.592;8.868;2022-08-26T10:57:03;96322.03;;;43.36;35.86
6829;BME280;17930;48.592;8.868;2022-08-26T10:59:44;96331.47;;;41.79;38.84
6829;BME280;17930;48.592;8.868;2022-08-26T11:02:17;96327.25;;;40.79;39.86
6829;BME280;17930;48.592;8.868;2022-08-26T11:04:52;96333.66;;;39.04;43.05
6829;BME280;17930;48.592;8.868;2022-08-26T11:07:38;96341.19;;;37.27;45.20
6829;BME280;17930;48.592;8.868;2022-08-26T11:10:09;96338.13;;;37.16;47.14
6829;BME280;17930;48.592;8.868;2022-08-26T11:12:51;96331.69;;;36.65;45.55
6829;BME280;17930;48.592;8.868;2022-08-26T11:15:57;96340.41;;;36.51;45.92
6829;BME280;17930;48.592;8.868;2022-08-26T11:18:41;96340.72;;;35.41;48.05
6829;BME280;17930;48.592;8.868;2022-08-26T11:24:37;96332.44;;;36.18;48.45
6829;BME280;17930;48.592;8.868;2022-08-26T11:27:06;96328.16;;;36.08;46.91
6829;BME280;17930;48.592;8.868;2022-08-26T11:29:56;96326.50;;;36.40;47.85
6829;BME280;17930;48.592;8.868;2022-08-26T11:32:44;96338.22;;;35.34;49.97
6829;BME280;17930;48.592;8.868;2022-08-26T11:35:46;96345.25;;;32.74;54.15
6829;BME280;17930;48.592;8.868;2022-08-26T11:38:19;96356.72;;;31.76;58.67
6829;BME280;17930;48.592;8.868;2022-08-26T11:40:56;96362.53;;;29.89;74.25
6829;BME280;17930;48.592;8.868;2022-08-26T11:43:24;96374.13;;;29.16;84.21
6829;BME280;17930;48.592;8.868;2022-08-26T11:45:59;96365.81;;;28.56;89.70
6829;BME280;17930;48.592;8.868;2022-08-26T11:48:29;96366.22;;;27.84;91.43
6829;BME280;17930;48.592;8.868;2022-08-26T11:51:01;96365.72;;;28.02;93.02
6829;BME280;17930;48.592;8.868;2022-08-26T11:53:31;96370.41;;;27.91;93.31
6829;BME280;17930;48.592;8.868;2022-08-26T11:56:00;96371.19;;;27.89;93.40
6829;BME280;17930;48.592;8.868;2022-08-26T11:58:29;96375.84;;;27.78;94.73
6829;BME280;17930;48.592;8.868;2022-08-26T12:00:59;96378.56;;;27.71;96.30
6829;BME280;17930;48.592;8.868;2022-08-26T12:03:34;96373.47;;;27.93;98.66
6829;BME280;17930;48.592;8.868;2022-08-26T12:06:10;96366.19;;;27.94;100.00
6829;BME280;17930;48.592;8.868;2022-08-26T12:08:39;96369.47;;;28.22;100.00
6829;BME280;17930;48.592;8.868;2022-08-26T12:11:10;96378.75;;;28.72;94.01
6829;BME280;17930;48.592;8.868;2022-08-26T12:13:38;96378.06;;;29.04;86.77
6829;BME280;17930;48.592;8.868;2022-08-26T12:16:05;96370.44;;;28.99;83.28
6829;BME280;17930;48.592;8.868;2022-08-26T12:18:34;96364.31;;;29.69;79.72
6829;BME280;17930;48.592;8.868;2022-08-26T12:21:12;96365.25;;;29.55;78.25
6829;BME280;17930;48.592;8.868;2022-08-26T12:23:41;96371.03;;;29.54;79.22
6829;BME280;17930;48.592;8.868;2022-08-26T12:26:17;96363.94;;;30.26;78.11
6829;BME280;17930;48.592;8.868;2022-08-26T12:28:50;96357.47;;;30.73;76.20
6829;BME280;17930;48.592;8.868;2022-08-26T12:31:24;96361.75;;;30.93;75.74
6829;BME280;17930;48.592;8.868;2022-08-26T12:33:52;96354.03;;;30.95;76.65
6829;BME280;17930;48.592;8.868;2022-08-26T12:36:24;96352.19;;;30.66;78.39
6829;BME280;17930;48.592;8.868;2022-08-26T12:38:53;96356.78;;;30.16;82.17
6829;BME280;17930;48.592;8.868;2022-08-26T12:41:37;96353.72;;;29.55;87.59
6829;BME280;17930;48.592;8.868;2022-08-26T12:44:04;96359.31;;;30.01;86.48
6829;BME280;17930;48.592;8.868;2022-08-26T12:46:31;96357.13;;;29.59;89.54
6829;BME280;17930;48.592;8.868;2022-08-26T12:48:58;96355.16;;;29.63;89.56
6829;BME280;17930;48.592;8.868;2022-08-26T12:51:31;96364.94;;;29.50;90.11
6829;BME280;17930;48.592;8.868;2022-08-26T12:53:59;96354.25;;;29.76;89.43
6829;BME280;17930;48.592;8.868;2022-08-26T12:56:35;96350.72;;;29.83;89.27
6829;BME280;17930;48.592;8.868;2022-08-26T12:59:07;96349.50;;;29.87;88.77
6829;BME280;17930;48.592;8.868;2022-08-26T13:01:37;96343.16;;;30.01;85.96
6829;BME280;17930;48.592;8.868;2022-08-26T13:04:04;96335.44;;;30.29;84.95
6829;BME280;17930;48.592;8.868;2022-08-26T13:06:33;96333.03;;;30.60;83.26
6829;BME280;17930;48.592;8.868;2022-08-26T13:09:03;96333.78;;;30.84;81.98
6829;BME280;17930;48.592;8.868;2022-08-26T13:11:33;96326.78;;;30.90;81.79
6829;BME280;17930;48.592;8.868;2022-08-26T13:14:02;96330.81;;;30.55;82.00
6829;BME280;17930;48.592;8.868;2022-08-26T13:16:29;96338.22;;;30.22;84.17
6829;BME280;17930;48.592;8.868;2022-08-26T13:18:58;96336.66;;;30.24;87.41
6829;BME280;17930;48.592;8.868;2022-08-26T13:21:27;96334.69;;;30.02;88.66
6829;BME280;17930;48.592;8.868;2022-08-26T13:23:56;96324.97;;;30.34;89.59